• Join FlightAware (Why Join?)
  • Login
  • US Flag 
01:19AM EDT


 

Airport Tracker/Info


-or-


 

Live Flight TrackerFlight Track Log ✈ N865JM ✈ 13-Oct-2013 ✈ KSHV - KPBI

Flight Track Log - Related Links

Times and Time Zones

All times are in EDT time to prevent confusion due to time zone crossing. See the N865JM flight status page for this flight to view local times or setup timezone preferences in your user account.

Time Position Orientation Groundspeed Altitude Reporting Facility
EDT Latitude Longitude Course Direction KTS MPH feet Rate Location/Type
11:14AM 32.4572 -93.8436 319° Northwest 194 223 900  Level Fort Worth Center
11:15AM 32.4850 -93.8719 319° Northwest 228 262 2,800 3,600 Climbing Fort Worth Center
11:16AM 32.5472 -93.8597 North 270 311 6,500 3,780 Climbing Fort Worth Center
11:16AM 32.5606 -93.8075 73° East 279 321 8,900 3,540 Climbing Fort Worth Center
11:17AM 32.5306 -93.7150 111° Southeast 258 297 12,500 3,180 Climbing Fort Worth Center
11:18AM 32.4964 -93.6153 112° Southeast 286 329 15,300 2,520 Climbing Fort Worth Center
11:19AM 32.4642 -93.5183 111° Southeast 336 387 17,600 1,980 Climbing Fort Worth Center
11:20AM 32.4247 -93.3919 110° East 357 411 19,300 1,800 Climbing Fort Worth Center
11:21AM 32.3831 -93.2683 112° Southeast 379 436 21,200 1,680 Climbing Fort Worth Center
11:22AM 32.3392 -93.1400 112° Southeast 396 456 22,700 1,620 Climbing Fort Worth Center
11:24AM 32.2444 -92.8744 113° Southeast 434 499 26,300 1,500 Climbing Houston Center
11:26AM 32.1978 -92.7386 112° Southeast 443 510 27,600 1,080 Climbing Houston Center
11:27AM 32.1469 -92.5914 112° Southeast 459 528 28,600 960 Climbing Houston Center
11:28AM 32.0969 -92.4481 112° Southeast 470 541 29,600 960 Climbing Houston Center
11:29AM 32.0456 -92.3008 112° Southeast 481 554 30,600 960 Climbing Houston Center
11:30AM 31.9928 -92.1522 113° Southeast 489 563 31,600 900 Climbing Houston Center
11:31AM 31.9306 -91.9747 112° Southeast 498 573 32,500 840 Climbing Houston Center
11:32AM 31.8758 -91.8222 113° Southeast 503 579 33,400 780 Climbing Houston Center
11:33AM 31.8208 -91.6661 112° Southeast 512 589 34,200 720 Climbing Houston Center
11:34AM 31.7642 -91.5103 113° Southeast 517 595 35,000 720 Climbing Houston Center
11:35AM 31.7086 -91.3553 113° Southeast 515 593 35,800 840 Climbing Houston Center
11:36AM 31.6414 -91.1694 113° Southeast 514 592 36,800 540 Climbing Houston Center
11:37AM 31.5886 -91.0258 113° Southeast 512 589 37,000 60 Climbing Houston Center
11:38AM 31.5303 -90.8689 114° Southeast 522 601 37,000  Level Houston Center
11:39AM 31.4722 -90.7111 113° Southeast 527 606 37,000  Level Houston Center
11:40AM 31.4147 -90.5531 113° Southeast 526 605 37,000  Level Houston Center
11:41AM 31.3456 -90.3644 113° Southeast 525 604 37,000  Level Houston Center
11:42AM 31.2981 -90.2056 109° East 519 597 37,000  Level Houston Center
11:43AM 31.2800 -90.0389 97° East 515 593 37,000  Level Houston Center
11:44AM 31.2592 -89.8736 98° East 513 590 37,000  Level Houston Center
11:45AM 31.2392 -89.7083 98° East 512 589 37,000  Level Houston Center
11:46AM 31.2197 -89.5428 98° East 513 590 37,000  Level Houston Center
11:47AM 31.1939 -89.3458 99° East 511 588 37,000  Level Houston Center
11:48AM 31.1719 -89.1797 99° East 515 593 37,000  Level Houston Center
11:49AM 31.1511 -89.0147 98° East 514 592 37,000  Level Houston Center
11:50AM 31.1306 -88.8639 99° East 510 587 37,000  Level Houston Center
11:51AM 31.1047 -88.6672 99° East 511 588 37,000  Level Houston Center
11:52AM 31.0858 -88.5228 99° East 511 588 37,000  Level Houston Center
11:53AM 31.0639 -88.3572 99° East 517 595 37,000  Level Houston Center
11:54AM 31.0378 -88.1606 99° East 513 590 37,000  Level Houston Center
11:55AM 31.0158 -87.9967 99° East 512 589 37,000  Level Houston Center
11:57AM 30.9931 -87.8350 99° East 507 583 37,000  Level Houston Center
11:58AM 30.9703 -87.6714 99° East 505 581 37,000  Level Houston Center
11:59AM 30.9475 -87.5081 99° East 510 587 37,000  Level Houston Center
12:00PM 30.9258 -87.3444 99° East 511 588 37,000  Level Houston Center
12:01PM 30.8978 -87.1497 99° East 510 587 37,000  Level Houston Center
12:02PM 30.8717 -86.9950 101° East 508 585 37,000  Level Houston Center
12:03PM 30.8483 -86.8333 100° East 508 585 37,000  Level Houston Center
12:04PM 30.8217 -86.6700 101° East 511 588 37,000  Level Houston Center
12:05PM 30.7689 -86.5131 111° Southeast 519 597 37,000  Level Houston Center
12:06PM 30.7069 -86.3186 110° East 515 593 37,000  Level Jacksonville Center
12:07PM 30.6567 -86.1622 110° East 515 593 37,000  Level Jacksonville Center
12:08PM 30.6064 -86.0036 110° East 515 593 37,000  Level Jacksonville Center
12:09PM 30.5539 -85.8475 111° Southeast 515 593 37,000  Level Jacksonville Center
12:10PM 30.5050 -85.6917 110° East 515 593 37,000  Level Jacksonville Center
12:11PM 30.4542 -85.5361 111° Southeast 515 593 37,000  Level Jacksonville Center
12:12PM 30.4031 -85.3806 111° Southeast 515 593 37,000  Level Jacksonville Center
12:13PM 30.3306 -85.2367 120° Southeast 515 593 37,000  Level Jacksonville Center
12:14PM 30.2347 -85.1092 131° Southeast 521 600 37,000  Level Jacksonville Center
12:15PM 30.1386 -84.9822 131° Southeast 521 600 37,000  Level Jacksonville Center
12:16PM 30.0447 -84.8553 130° Southeast 526 605 37,000  Level Jacksonville Center
12:17PM 29.9464 -84.7286 132° Southeast 526 605 37,000  Level Jacksonville Center
12:18PM 29.8378 -84.5903 132° Southeast 521 600 37,000  Level Jacksonville Center
12:19PM 29.7411 -84.4664 132° Southeast 521 600 37,000  Level Jacksonville Center
12:20PM 29.6528 -84.3528 132° Southeast 521 600 37,000  Level Jacksonville Center
12:21PM 29.5539 -84.2272 132° Southeast 526 605 37,000  Level Jacksonville Center
12:22PM 29.4569 -84.1019 132° Southeast 526 605 37,000  Level Jacksonville Center
12:23PM 29.3600 -83.9792 132° Southeast 526 605 37,000  Level Jacksonville Center
12:24PM 29.2650 -83.8519 131° Southeast 526 605 37,000  Level Jacksonville Center
12:25PM 29.1656 -83.7297 133° Southeast 526 605 37,000  Level Jacksonville Center
12:26PM 29.0683 -83.6053 132° Southeast 526 605 37,000  Level Jacksonville Center
12:27PM 28.9731 -83.4836 132° Southeast 526 605 37,000  Level Jacksonville Center
12:28PM 28.8753 -83.3597 132° Southeast 521 600 37,000  Level Jacksonville Center
12:29PM 28.7797 -83.2383 132° Southeast 521 600 37,000 -300 Level Jacksonville Center
12:30PM 28.6653 -83.1386 143° Southeast 515 593 36,500 -540 Descending Jacksonville Center
12:31PM 28.5525 -83.0414 143° Southeast 515 593 36,000 -480 Descending Jacksonville Center
12:33PM 28.2936 -82.8233 143° Southeast 529 609 35,000 -360 Descending Miami Center
12:34PM 28.1786 -82.7253 143° Southeast 529 609 35,000  Level Miami Center
12:35PM 28.0639 -82.6278 143° Southeast 524 603 35,000  Level Miami Center
12:36PM 27.9486 -82.5303 143° Southeast 524 603 35,000 -420 Level Miami Center
12:37PM 27.8289 -82.4492 149° Southeast 519 597 34,200 -1,200 Descending Miami Center
12:38PM 27.7147 -82.3803 152° Southeast 506 582 32,600 -1,800 Descending Miami Center
12:39PM 27.5842 -82.2967 150° Southeast 501 577 30,700 -1,800 Descending Miami Center
12:40PM 27.4661 -82.2231 151° Southeast 496 571 29,000 -1,680 Descending Miami Center
12:41PM 27.3478 -82.1475 150° Southeast 491 565 27,400 -1,680 Descending Miami Center
12:42PM 27.2417 -82.0844 152° Southeast 483 556 25,700 -1,680 Descending Miami Center
12:43PM 27.1314 -82.0164 151° Southeast 475 547 24,100 -900 Descending Miami Center
12:44PM 27.0144 -81.9575 156° South 462 532 23,900 -900 Descending Miami Center
12:45PM 26.8972 -81.9058 159° South 457 526 22,400 -1,560 Descending Miami Center
12:46PM 26.8064 -81.8136 138° Southeast 443 510 20,900 -1,500 Descending Miami Center
12:47PM 26.7350 -81.7058 127° Southeast 426 490 19,400 -960 Descending Miami Center
12:48PM 26.7189 -81.5589 97° East 402 463 19,000 -240 Descending Miami Center
12:49PM 26.7378 -81.4294 81° East 402 463 19,000 -60 Level Miami Center
12:50PM 26.7667 -81.3003 76° East 412 474 18,900 -1,200 Descending Miami Center
12:51PM 26.7997 -81.1758 73° East 417 480 16,600 -2,580 Descending Miami Center
12:52PM 26.8197 -81.0603 79° East 400 460 13,800 -2,820 Descending Miami Center
12:53PM 26.8311 -80.9536 83° East 368 423 11,000 -1,920 Descending Miami Center
12:54PM 26.8361 -80.8561 87° East 324 373 10,000 -540 Descending Miami Center
12:55PM 26.8128 -80.7831 110° East 285 328 10,000 -360 Level Miami Center
12:56PM 26.7758 -80.6867 113° Southeast 298 343 9,300 -960 Descending Miami Center
12:57PM 26.7444 -80.6042 113° Southeast 303 349 8,100 -1,380 Descending Miami Center
12:58PM 26.7153 -80.5219 112° Southeast 293 337 6,600 -1,500 Descending Miami Center
12:59PM 26.6964 -80.4422 105° East 270 311 5,200 -1,440 Descending Miami Center
01:00PM 26.6919 -80.3722 94° East 260 299 3,800 -1,380 Descending Miami Center
01:01PM 26.6875 -80.2931 94° East 239 275 2,500 -900 Descending Miami Center
01:02PM 26.6847 -80.2328 93° East 225 259 2,000 -540 Descending Miami Center
01:04PM 26.6536 -80.1008 50° Northeast  Level FlightAware Approximate
01:11PM 26.6667 -80.0833 50° Northeast  Level FlightAware Approximate
01:12PM 26.6832 -80.0956 50° Northeast  Level Estimated
01:13PM 26.6832 -80.0956 50° Northeast  Level Estimated
01:14PM 26.6832 -80.0956 50° Northeast  Level Estimated